createdAt,value
2018-07-20T00:00:22.734Z,17.47
2018-07-20T00:01:50.146Z,17.44
2018-07-20T00:03:17.773Z,17.46
2018-07-20T00:04:43.990Z,17.46
2018-07-20T00:06:12.391Z,17.43
2018-07-20T00:07:38.869Z,17.41
2018-07-20T00:09:07.148Z,17.33
2018-07-20T00:10:34.353Z,17.33
2018-07-20T00:12:00.669Z,17.33
2018-07-20T00:13:28.147Z,17.29
2018-07-20T00:14:55.576Z,17.29
2018-07-20T00:16:22.970Z,17.29
2018-07-20T00:17:51.287Z,17.28
2018-07-20T00:19:17.766Z,17.27
2018-07-20T00:20:46.396Z,17.26
2018-07-20T00:22:13.824Z,17.26
2018-07-20T00:23:41.204Z,17.21
2018-07-20T00:25:07.723Z,17.14
2018-07-20T00:26:34.859Z,17.13
2018-07-20T00:28:03.534Z,17.16
2018-07-20T00:29:29.759Z,17.17
2018-07-20T00:30:58.206Z,17.18
2018-07-20T00:32:24.510Z,17.16
2018-07-20T00:33:52.823Z,17.16
2018-07-20T00:35:19.230Z,17.18
2018-07-20T00:36:46.794Z,17.21
2018-07-20T00:38:13.963Z,17.22
2018-07-20T00:39:41.390Z,17.23
2018-07-20T00:41:09.973Z,17.24
2018-07-20T00:42:36.255Z,17.24
2018-07-20T00:44:04.546Z,17.23
2018-07-20T00:45:30.934Z,17.21
2018-07-20T00:46:59.346Z,17.20
2018-07-20T00:48:26.831Z,17.15
2018-07-20T00:49:54.212Z,17.09
2018-07-20T00:51:21.601Z,16.98
2018-07-20T00:52:48.048Z,16.96
2018-07-20T00:54:16.522Z,16.97
2018-07-20T00:55:43.081Z,16.98
2018-07-20T00:57:10.272Z,16.98
2018-07-20T00:58:37.750Z,16.97
2018-07-20T01:00:06.434Z,16.95
2018-07-20T01:01:32.744Z,16.94
2018-07-20T01:03:01.170Z,16.94
2018-07-20T01:04:27.749Z,16.94
2018-07-20T01:05:55.229Z,16.91
2018-07-20T01:07:23.598Z,16.90
2018-07-20T01:08:50.035Z,16.88
2018-07-20T01:10:18.452Z,16.86
2018-07-20T01:11:44.935Z,16.86
2018-07-20T01:13:12.387Z,16.88
2018-07-20T01:14:40.867Z,16.91
2018-07-20T01:16:07.195Z,16.92
2018-07-20T01:17:35.697Z,16.87
2018-07-20T01:19:02.225Z,16.86
2018-07-20T01:20:30.551Z,16.86
2018-07-20T01:21:57.904Z,16.84
2018-07-20T01:23:24.154Z,16.82
2018-07-20T01:24:51.620Z,16.74
2018-07-20T01:26:19.721Z,16.65
2018-07-20T01:27:47.314Z,16.62
2018-07-20T01:29:14.646Z,16.61
2018-07-20T01:30:41.065Z,16.55
2018-07-20T01:32:09.571Z,16.41
2018-07-20T01:33:37.042Z,16.33
2018-07-20T01:35:03.392Z,16.24
2018-07-20T01:36:30.588Z,16.24
2018-07-20T01:37:57.904Z,16.29
2018-07-20T01:39:25.163Z,16.34
2018-07-20T01:40:53.509Z,16.37
2018-07-20T01:42:21.132Z,16.39
2018-07-20T01:43:48.515Z,16.39
2018-07-20T01:45:15.932Z,16.43
2018-07-20T01:46:43.310Z,16.48
2018-07-20T01:48:09.632Z,16.54
2018-07-20T01:49:36.851Z,16.56
2018-07-20T01:51:05.029Z,16.60
2018-07-20T01:52:31.417Z,16.61
2018-07-20T01:53:58.712Z,16.61
2018-07-20T01:55:27.065Z,16.61
2018-07-20T01:56:53.400Z,16.56
2018-07-20T01:58:21.878Z,16.43
2018-07-20T01:59:48.123Z,16.41
2018-07-20T02:01:16.564Z,16.43
2018-07-20T02:02:42.865Z,16.44
2018-07-20T02:04:11.325Z,16.45
2018-07-20T02:05:38.575Z,16.46
2018-07-20T02:07:04.744Z,16.46
2018-07-20T02:08:32.096Z,16.45
2018-07-20T02:10:00.424Z,16.46
2018-07-20T02:11:27.805Z,16.46
2018-07-20T02:12:54.146Z,16.44
2018-07-20T02:14:21.628Z,16.44
2018-07-20T02:15:49.001Z,16.44
2018-07-20T02:17:16.389Z,16.44
2018-07-20T02:18:44.998Z,16.46
2018-07-20T02:20:12.429Z,16.47
2018-07-20T02:21:38.531Z,16.44
2018-07-20T02:23:05.939Z,16.42
2018-07-20T02:24:33.434Z,16.36
2018-07-20T02:26:00.938Z,16.30
2018-07-20T02:27:29.223Z,16.29
2018-07-20T02:28:56.231Z,16.28
2018-07-20T02:30:22.598Z,16.29
2018-07-20T02:31:49.608Z,16.30
2018-07-20T02:33:18.227Z,16.28
2018-07-20T02:34:44.473Z,16.25
2018-07-20T02:36:11.785Z,16.22
2018-07-20T02:37:40.111Z,16.21
2018-07-20T02:39:07.540Z,16.16
2018-07-20T02:40:34.641Z,16.15
2018-07-20T02:42:00.859Z,16.16
2018-07-20T02:43:28.385Z,16.12
2018-07-20T02:44:55.656Z,16.07
2018-07-20T02:46:24.156Z,16.02
2018-07-20T02:47:50.592Z,15.98
2018-07-20T02:49:17.872Z,15.98
2018-07-20T02:50:45.105Z,15.92
2018-07-20T02:52:12.271Z,15.82
2018-07-20T02:53:39.581Z,15.81
2018-07-20T02:55:06.792Z,15.77
2018-07-20T02:56:34.042Z,15.75
2018-07-20T02:58:01.364Z,15.75
2018-07-20T02:59:28.537Z,15.79
2018-07-20T03:00:56.664Z,15.84
2018-07-20T03:02:22.824Z,15.86
2018-07-20T03:03:50.971Z,15.85
2018-07-20T03:05:17.468Z,15.87
2018-07-20T03:06:45.925Z,15.86
2018-07-20T03:08:13.345Z,15.86
2018-07-20T03:09:39.581Z,15.86
2018-07-20T03:11:07.884Z,15.87
2018-07-20T03:12:35.381Z,15.90
2018-07-20T03:14:02.670Z,15.89
2018-07-20T03:15:28.839Z,15.83
2018-07-20T03:16:57.448Z,15.81
2018-07-20T03:18:23.597Z,15.80
2018-07-20T03:19:51.882Z,15.82
2018-07-20T03:21:18.183Z,15.81
2018-07-20T03:22:45.551Z,15.76
2018-07-20T03:24:12.927Z,15.72
2018-07-20T03:25:41.358Z,15.71
2018-07-20T03:27:07.718Z,15.72
2018-07-20T03:28:36.172Z,15.75
2018-07-20T03:30:02.751Z,15.77
2018-07-20T03:31:30.180Z,15.76
2018-07-20T03:32:58.750Z,15.76
2018-07-20T03:34:24.922Z,15.76
2018-07-20T03:35:53.345Z,15.76
2018-07-20T03:37:19.752Z,15.77
2018-07-20T03:38:48.053Z,15.77
2018-07-20T03:40:14.330Z,15.79
2018-07-20T03:41:42.664Z,15.82
2018-07-20T03:43:10.109Z,15.84
2018-07-20T03:44:37.371Z,15.85
2018-07-20T03:46:04.946Z,15.87
2018-07-20T03:47:31.113Z,15.86
2018-07-20T03:48:59.790Z,15.86
2018-07-20T03:50:26.046Z,15.89
2018-07-20T03:51:53.332Z,15.91
2018-07-20T03:53:21.717Z,15.94
2018-07-20T03:54:49.127Z,15.97
2018-07-20T03:56:15.621Z,15.98
2018-07-20T03:57:42.881Z,15.98
2018-07-20T03:59:11.206Z,15.96
2018-07-20T04:00:37.497Z,15.97
2018-07-20T04:02:04.812Z,16.01
2018-07-20T04:03:33.187Z,16.06
2018-07-20T04:04:59.455Z,16.10
2018-07-20T04:06:26.759Z,16.13
2018-07-20T04:07:55.139Z,16.16
2018-07-20T04:09:21.518Z,16.19
2018-07-20T04:10:50.068Z,16.21
2018-07-20T04:12:16.399Z,16.23
2018-07-20T04:13:44.806Z,16.19
2018-07-20T04:15:11.011Z,16.10
2018-07-20T04:16:39.597Z,16.06
2018-07-20T04:18:05.917Z,16.09
2018-07-20T04:19:33.195Z,16.14
2018-07-20T04:21:01.509Z,16.21
2018-07-20T04:22:28.800Z,16.23
2018-07-20T04:23:55.363Z,16.29
2018-07-20T04:25:23.756Z,16.34
2018-07-20T04:26:49.998Z,16.33
2018-07-20T04:28:18.538Z,16.37
2018-07-20T04:29:44.919Z,16.43
2018-07-20T04:31:12.207Z,16.47
2018-07-20T04:32:39.579Z,16.48
2018-07-20T04:34:08.145Z,16.48
2018-07-20T04:35:34.273Z,16.50
2018-07-20T04:37:01.726Z,16.54
2018-07-20T04:38:29.181Z,16.56
2018-07-20T04:39:56.614Z,16.60
2018-07-20T04:41:25.110Z,16.64
2018-07-20T04:42:51.627Z,16.63
2018-07-20T04:44:19.685Z,16.60
2018-07-20T04:45:46.074Z,16.60
2018-07-20T04:47:13.595Z,16.62
2018-07-20T04:48:40.771Z,16.67
2018-07-20T04:50:08.066Z,16.73
2018-07-20T04:51:35.414Z,16.78
2018-07-20T04:53:02.937Z,16.80
2018-07-20T04:54:31.542Z,16.83
2018-07-20T04:55:59.015Z,16.89
2018-07-20T04:57:25.440Z,16.96
2018-07-20T04:58:53.867Z,16.99
2018-07-20T05:06:29.549Z,17.25
2018-07-20T05:07:55.276Z,17.33
2018-07-20T05:09:22.631Z,17.43
2018-07-20T05:10:50.726Z,17.54
2018-07-20T05:12:18.255Z,17.60
2018-07-20T05:13:44.648Z,17.65
2018-07-20T05:15:12.793Z,17.72
2018-07-20T05:16:39.252Z,17.81
2018-07-20T05:18:06.687Z,17.91
2018-07-20T05:19:34.207Z,17.94
2018-07-20T05:21:01.673Z,18.00
2018-07-20T05:22:29.815Z,18.05
2018-07-20T05:23:57.401Z,18.12
2018-07-20T05:25:24.582Z,18.16
2018-07-20T05:26:51.217Z,18.21
2018-07-20T05:28:19.544Z,18.31
2018-07-20T05:29:46.986Z,18.40
2018-07-20T05:31:14.209Z,18.47
2018-07-20T05:32:41.920Z,18.55
2018-07-20T05:34:08.394Z,18.61
2018-07-20T05:35:36.773Z,18.68
2018-07-20T05:37:03.050Z,18.76
2018-07-20T05:38:30.404Z,18.83
2018-07-20T05:39:58.008Z,18.86
2018-07-20T05:41:26.591Z,18.92
2018-07-20T05:42:54.146Z,18.97
2018-07-20T05:44:20.363Z,19.03
2018-07-20T05:45:47.666Z,19.09
2018-07-20T05:47:15.157Z,19.17
2018-07-20T05:48:42.594Z,19.27
2018-07-20T05:50:10.177Z,19.41
2018-07-20T05:51:37.898Z,19.63
2018-07-20T05:53:06.367Z,19.89
2018-07-20T05:54:33.878Z,20.31
2018-07-20T05:56:00.089Z,20.84
2018-07-20T05:57:27.203Z,21.32
2018-07-20T05:58:54.952Z,21.82
2018-07-20T06:00:23.158Z,22.23
2018-07-20T06:01:49.686Z,22.56
2018-07-20T06:03:17.321Z,22.87
2018-07-20T06:04:45.630Z,23.03
2018-07-20T06:06:12.090Z,23.22
2018-07-20T06:07:39.285Z,23.44
2018-07-20T06:09:06.715Z,23.46
2018-07-20T06:10:34.220Z,23.50
2018-07-20T06:12:01.587Z,23.44
2018-07-20T06:13:28.777Z,23.35
2018-07-20T06:14:56.352Z,23.32
2018-07-20T06:16:23.853Z,23.29
2018-07-20T06:17:50.832Z,23.43
2018-07-20T06:19:18.258Z,23.49
2018-07-20T06:20:45.569Z,23.52
2018-07-20T06:22:13.720Z,23.46
2018-07-20T06:23:40.152Z,23.35
2018-07-20T06:25:08.435Z,23.41
2018-07-20T06:26:36.139Z,23.41
2018-07-20T06:28:03.703Z,23.41
2018-07-20T06:29:31.015Z,23.47
2018-07-20T06:30:58.495Z,23.51
2018-07-20T06:32:24.929Z,23.47
2018-07-20T06:33:52.555Z,23.45
2018-07-20T06:35:20.660Z,23.34
2018-07-20T06:36:46.581Z,23.27
2018-07-20T06:38:14.153Z,23.15
2018-07-20T06:39:41.755Z,23.12
2018-07-20T06:41:10.099Z,23.03
2018-07-20T06:42:36.426Z,22.99
2018-07-20T06:44:03.786Z,22.97
2018-07-20T06:45:31.204Z,22.89
2018-07-20T06:46:59.974Z,22.92
2018-07-20T06:48:27.373Z,22.98
2018-07-20T06:49:54.810Z,23.08
2018-07-20T06:51:22.353Z,23.22
2018-07-20T06:52:49.716Z,23.36
2018-07-20T06:54:17.114Z,23.47
2018-07-20T06:55:44.342Z,23.44
2018-07-20T06:57:10.398Z,23.36
2018-07-20T06:58:39.014Z,23.38
2018-07-20T07:00:05.503Z,23.29
2018-07-20T07:01:32.873Z,23.28
2018-07-20T07:03:01.139Z,23.33
2018-07-20T07:04:27.644Z,23.38
2018-07-20T07:05:56.264Z,23.39
2018-07-20T07:07:22.859Z,23.43
2018-07-20T07:08:50.432Z,23.31
2018-07-20T07:10:17.961Z,23.14
2018-07-20T07:11:45.580Z,23.11
2018-07-20T07:13:13.100Z,23.18
2018-07-20T07:14:41.417Z,23.31
2018-07-20T07:16:07.708Z,23.44
2018-07-20T07:17:36.053Z,23.64
2018-07-20T07:19:02.401Z,23.77
2018-07-20T07:20:29.885Z,23.76
2018-07-20T07:21:56.937Z,23.68
2018-07-20T07:23:24.595Z,23.60
2018-07-20T07:24:51.744Z,23.55
2018-07-20T07:26:19.188Z,23.54
2018-07-20T07:27:47.810Z,23.49
2018-07-20T07:29:15.137Z,23.40
2018-07-20T07:30:42.654Z,23.43
2018-07-20T07:32:10.194Z,23.51
2018-07-20T07:33:36.612Z,23.61
2018-07-20T07:35:03.867Z,23.62
2018-07-20T07:36:32.410Z,23.62
2018-07-20T07:37:58.836Z,23.45
2018-07-20T07:39:27.295Z,23.40
2018-07-20T07:40:54.697Z,23.37
2018-07-20T07:42:21.340Z,23.40
2018-07-20T07:43:48.605Z,23.45
2018-07-20T07:45:15.522Z,23.49
2018-07-20T07:46:42.645Z,23.52
2018-07-20T07:48:09.917Z,23.56
2018-07-20T07:49:37.470Z,23.60
2018-07-20T07:51:05.137Z,23.64
2018-07-20T07:52:32.528Z,23.66
2018-07-20T07:54:00.105Z,23.67
2018-07-20T07:55:27.716Z,23.64
2018-07-20T07:56:55.228Z,23.61
2018-07-20T07:58:23.630Z,23.62
2018-07-20T07:59:50.381Z,23.58
2018-07-20T08:01:18.844Z,23.58
2018-07-20T08:02:45.539Z,23.59
2018-07-20T08:04:13.024Z,23.63
2018-07-20T08:05:40.733Z,23.66
2018-07-20T08:07:08.203Z,23.70
2018-07-20T08:08:35.864Z,23.75
2018-07-20T08:10:03.287Z,23.75
2018-07-20T08:11:31.379Z,23.79
2018-07-20T08:12:57.961Z,23.83
2018-07-20T08:14:26.401Z,23.86
2018-07-20T08:15:52.760Z,23.88
2018-07-20T08:17:20.424Z,23.86
2018-07-20T08:18:47.637Z,23.88
2018-07-20T08:20:16.278Z,23.86
2018-07-20T08:21:43.646Z,23.88
2018-07-20T08:23:10.228Z,23.92
2018-07-20T08:24:37.461Z,23.90
2018-07-20T08:26:04.842Z,23.86
2018-07-20T08:27:31.800Z,23.85
2018-07-20T08:28:59.343Z,23.86
2018-07-20T08:30:27.645Z,23.84
2018-07-20T08:31:54.805Z,23.86
2018-07-20T08:33:22.282Z,23.87
2018-07-20T08:34:49.785Z,23.90
2018-07-20T08:36:16.205Z,23.94
2018-07-20T08:37:43.678Z,23.92
2018-07-20T08:39:10.478Z,23.90
2018-07-20T08:40:37.805Z,23.87
2018-07-20T08:42:05.312Z,23.85
2018-07-20T08:43:32.694Z,23.88
2018-07-20T08:44:59.799Z,23.89
2018-07-20T08:46:27.001Z,23.89
2018-07-20T08:47:54.598Z,23.86
2018-07-20T08:49:22.040Z,23.81
2018-07-20T08:50:50.499Z,23.82
2018-07-20T08:52:18.120Z,23.85
2018-07-20T08:53:44.763Z,23.85
2018-07-20T08:55:12.129Z,23.84
2018-07-20T08:56:40.481Z,23.88
2018-07-20T08:58:06.808Z,23.91
2018-07-20T08:59:34.506Z,23.99
2018-07-20T09:01:01.947Z,24.05
2018-07-20T09:02:29.239Z,24.10
2018-07-20T09:03:56.859Z,24.13
2018-07-20T09:05:24.402Z,24.14
2018-07-20T09:06:51.642Z,24.08
2018-07-20T09:08:19.044Z,24.05
2018-07-20T09:09:47.637Z,24.00
2018-07-20T09:11:14.196Z,24.04
2018-07-20T09:12:41.674Z,24.09
2018-07-20T09:14:09.281Z,24.16
2018-07-20T09:15:37.783Z,24.21
2018-07-20T09:17:04.353Z,24.31
2018-07-20T09:18:31.753Z,24.43
2018-07-20T09:19:59.674Z,24.56
2018-07-20T09:21:27.099Z,24.66
2018-07-20T09:22:55.530Z,24.80
2018-07-20T09:24:22.774Z,24.86
2018-07-20T09:25:49.154Z,24.90
2018-07-20T09:27:16.329Z,24.81
2018-07-20T09:28:43.862Z,24.67
2018-07-20T09:30:11.288Z,24.66
2018-07-20T09:31:38.896Z,24.70
2018-07-20T09:34:33.610Z,24.64
2018-07-20T09:36:00.964Z,24.62
2018-07-20T09:37:28.590Z,24.62
2018-07-20T09:38:57.343Z,24.59
2018-07-20T09:40:23.709Z,24.60
2018-07-20T09:41:52.233Z,24.63
2018-07-20T09:43:19.199Z,24.62
2018-07-20T09:44:45.771Z,24.59
2018-07-20T09:46:13.309Z,24.55
2018-07-20T09:47:40.968Z,24.58
2018-07-20T09:49:08.280Z,24.56
2018-07-20T09:50:35.949Z,24.55
2018-07-20T09:52:03.536Z,24.56
2018-07-20T09:53:31.935Z,24.58
2018-07-20T09:54:58.334Z,24.60
2018-07-20T09:56:26.043Z,24.59
2018-07-20T09:57:53.599Z,24.61
2018-07-20T09:59:22.204Z,24.64
2018-07-20T10:00:49.662Z,24.69
2018-07-20T10:02:17.294Z,24.72
2018-07-20T10:03:43.531Z,24.75
2018-07-20T10:05:10.641Z,24.77
2018-07-20T10:06:39.024Z,24.80
2018-07-20T10:08:05.128Z,24.80
2018-07-20T10:09:32.149Z,24.83
2018-07-20T10:10:59.777Z,24.84
2018-07-20T10:12:27.241Z,24.80
2018-07-20T10:13:55.546Z,24.83
2018-07-20T10:15:21.837Z,24.87
2018-07-20T10:16:49.303Z,24.88
2018-07-20T10:18:17.043Z,24.91
2018-07-20T10:19:44.506Z,24.93
2018-07-20T10:21:13.196Z,24.98
2018-07-20T10:22:39.515Z,25.01
2018-07-20T10:24:07.124Z,25.05
2018-07-20T10:25:34.401Z,25.05
2018-07-20T10:27:01.802Z,25.06
2018-07-20T10:28:29.160Z,25.09
2018-07-20T10:29:57.921Z,25.10
2018-07-20T10:31:24.175Z,25.13
2018-07-20T10:32:51.705Z,25.15
2018-07-20T10:34:19.069Z,25.17
2018-07-20T10:35:47.549Z,25.18
2018-07-20T10:37:13.692Z,25.19
2018-07-20T10:38:41.137Z,25.18
2018-07-20T10:40:08.477Z,25.22
2018-07-20T10:41:35.783Z,25.26
2018-07-20T10:43:02.930Z,25.31
2018-07-20T10:44:30.067Z,25.33
2018-07-20T10:45:58.581Z,25.34
2018-07-20T10:47:25.068Z,25.35
2018-07-20T10:48:52.277Z,25.37
2018-07-20T10:50:19.700Z,25.39
2018-07-20T10:51:48.226Z,25.38
2018-07-20T10:53:14.767Z,25.37
2018-07-20T10:54:42.308Z,25.28
2018-07-20T10:56:10.447Z,25.24
2018-07-20T10:57:36.850Z,25.27
2018-07-20T10:59:05.288Z,25.36
2018-07-20T11:00:32.473Z,25.34
2018-07-20T11:01:58.784Z,25.38
2018-07-20T11:03:26.106Z,25.39
2018-07-20T11:04:53.739Z,25.45
2018-07-20T11:06:21.034Z,25.62
2018-07-20T11:07:48.949Z,25.79
2018-07-20T11:09:16.527Z,25.96
2018-07-20T11:10:45.285Z,26.09
2018-07-20T11:12:11.766Z,26.21
2018-07-20T11:13:40.348Z,26.20
2018-07-20T11:15:06.995Z,26.36
2018-07-20T11:16:34.715Z,26.51
2018-07-20T11:18:03.308Z,26.65
2018-07-20T11:19:29.250Z,26.76
2018-07-20T11:20:57.073Z,26.88
2018-07-20T11:22:24.429Z,27.02
2018-07-20T11:23:52.912Z,27.20
2018-07-20T11:25:19.661Z,27.44
2018-07-20T11:26:48.213Z,27.56
2018-07-20T11:28:15.072Z,27.64
2018-07-20T11:29:42.362Z,27.68
2018-07-20T11:31:09.808Z,27.78
2018-07-20T11:32:37.183Z,28.02
2018-07-20T11:34:04.714Z,28.14
2018-07-20T11:35:33.303Z,28.32
2018-07-20T11:36:59.666Z,28.58
2018-07-20T11:38:27.537Z,28.70
2018-07-20T11:39:55.111Z,28.77
2018-07-20T11:41:22.985Z,28.91
2018-07-20T11:42:50.312Z,28.83
2018-07-20T11:44:17.716Z,29.04
2018-07-20T11:45:45.330Z,29.04
2018-07-20T11:47:12.925Z,29.09
2018-07-20T11:48:40.422Z,29.14
2018-07-20T11:50:08.953Z,28.87
2018-07-20T11:51:35.449Z,28.67
2018-07-20T11:53:03.986Z,28.80
2018-07-20T11:54:31.212Z,28.99
2018-07-20T11:55:58.037Z,29.19
2018-07-20T11:57:25.747Z,29.35
2018-07-20T11:58:53.206Z,29.41
2018-07-20T12:00:21.827Z,29.58
2018-07-20T12:01:48.643Z,29.81
2018-07-20T12:03:16.371Z,29.79
2018-07-20T12:04:43.875Z,29.61
2018-07-20T12:06:11.210Z,29.32
2018-07-20T12:07:38.716Z,29.26
2018-07-20T12:09:06.303Z,29.21
2018-07-20T12:10:33.672Z,29.20
2018-07-20T12:12:01.227Z,28.88
2018-07-20T12:13:28.734Z,28.71
2018-07-20T12:14:56.224Z,28.73
2018-07-20T12:16:23.831Z,29.01
2018-07-20T12:17:51.198Z,29.37
2018-07-20T12:19:18.791Z,29.57
2018-07-20T12:20:47.121Z,29.88
2018-07-20T12:22:14.627Z,29.98
2018-07-20T12:23:41.231Z,29.86
2018-07-20T12:25:09.064Z,29.60
2018-07-20T12:26:30.661Z,29.53
2018-07-20T12:28:03.519Z,29.77
2018-07-20T12:29:31.183Z,30.00
2018-07-20T12:30:58.300Z,29.97
2018-07-20T12:32:25.854Z,29.87
2018-07-20T12:33:53.420Z,30.02
2018-07-20T12:35:20.996Z,29.91
2018-07-20T12:36:48.526Z,29.93
2018-07-20T12:38:16.162Z,29.71
2018-07-20T12:39:44.800Z,29.70
2018-07-20T12:41:11.452Z,29.70
2018-07-20T12:42:39.262Z,29.65
2018-07-20T12:44:06.539Z,29.59
2018-07-20T12:45:34.694Z,29.47
2018-07-20T12:47:02.211Z,29.38
2018-07-20T12:48:28.912Z,29.12
2018-07-20T12:49:56.582Z,29.06
2018-07-20T12:51:24.311Z,29.17
2018-07-20T12:52:51.984Z,29.08
2018-07-20T12:54:20.485Z,29.21
2018-07-20T12:55:47.711Z,29.46
2018-07-20T12:57:15.429Z,29.59
2018-07-20T12:58:42.081Z,29.66
2018-07-20T13:00:09.566Z,29.62
2018-07-20T13:01:37.150Z,29.35
2018-07-20T13:03:04.779Z,28.94
2018-07-20T13:04:32.287Z,28.66
2018-07-20T13:05:59.899Z,28.57
2018-07-20T13:07:27.586Z,28.45
2018-07-20T13:08:56.282Z,28.48
2018-07-20T13:10:22.779Z,28.73
2018-07-20T13:11:50.347Z,28.97
2018-07-20T13:13:17.823Z,29.01
2018-07-20T13:14:45.146Z,28.86
2018-07-20T13:16:12.836Z,28.53
2018-07-20T13:17:40.269Z,28.23
2018-07-20T13:19:08.021Z,28.06
2018-07-20T13:20:35.581Z,27.97
2018-07-20T13:22:03.183Z,27.93
2018-07-20T13:23:31.853Z,27.76
2018-07-20T13:24:58.575Z,27.58
2018-07-20T13:26:25.886Z,27.54
2018-07-20T13:27:53.707Z,27.41
2018-07-20T13:29:21.336Z,27.30
2018-07-20T13:30:48.938Z,27.15
2018-07-20T13:32:16.607Z,26.88
2018-07-20T13:33:44.076Z,26.78
2018-07-20T13:35:11.373Z,26.81
2018-07-20T13:36:39.168Z,26.74
2018-07-20T13:38:07.925Z,26.76
2018-07-20T13:39:34.325Z,26.78
2018-07-20T13:41:01.660Z,26.77
2018-07-20T13:42:29.861Z,26.89
2018-07-20T13:43:56.436Z,26.84
2018-07-20T13:45:25.063Z,26.72
2018-07-20T13:46:51.706Z,26.54
2018-07-20T13:48:19.257Z,26.45
2018-07-20T13:49:46.760Z,26.43
2018-07-20T13:51:14.181Z,26.46
2018-07-20T13:52:41.901Z,26.50
2018-07-20T13:54:09.415Z,26.58
2018-07-20T13:55:36.794Z,26.50
2018-07-20T13:57:04.470Z,26.40
2018-07-20T13:58:31.799Z,26.44
2018-07-20T13:59:59.404Z,26.32
2018-07-20T14:01:26.943Z,26.19
2018-07-20T14:02:54.340Z,26.04
2018-07-20T14:04:22.004Z,25.99
2018-07-20T14:05:50.457Z,26.04
2018-07-20T14:07:18.147Z,26.06
2018-07-20T14:08:44.226Z,26.12
2018-07-20T14:10:11.748Z,26.20
2018-07-20T14:11:39.476Z,26.10
2018-07-20T14:13:08.116Z,26.10
2018-07-20T14:14:34.496Z,26.13
2018-07-20T14:16:02.109Z,26.22
2018-07-20T14:17:29.771Z,26.23
2018-07-20T14:18:58.234Z,26.19
2018-07-20T14:20:24.784Z,26.07
2018-07-20T14:21:52.476Z,25.92
2018-07-20T14:23:19.598Z,25.87
2018-07-20T14:24:47.155Z,25.86
2018-07-20T14:26:15.483Z,25.81
2018-07-20T14:27:41.895Z,25.69
2018-07-20T14:29:09.479Z,25.58
2018-07-20T14:30:36.567Z,25.53
2018-07-20T14:32:04.015Z,25.45
2018-07-20T14:33:31.486Z,25.48
2018-07-20T14:34:59.974Z,25.37
2018-07-20T14:36:26.425Z,25.26
2018-07-20T14:37:54.987Z,25.22
2018-07-20T14:39:22.565Z,25.17
2018-07-20T14:40:49.032Z,25.17
2018-07-20T14:42:16.725Z,25.12
2018-07-20T14:43:44.331Z,25.06
2018-07-20T14:45:11.867Z,25.11
2018-07-20T14:46:40.538Z,25.12
2018-07-20T14:48:06.930Z,25.10
2018-07-20T14:49:34.704Z,25.09
2018-07-20T14:51:02.104Z,25.09
2018-07-20T14:52:30.682Z,25.02
2018-07-20T14:53:57.094Z,24.94
2018-07-20T14:55:24.579Z,24.95
2018-07-20T14:56:52.810Z,24.91
2018-07-20T14:58:19.849Z,24.92
2018-07-20T14:59:47.317Z,24.93
2018-07-20T15:01:14.874Z,24.90
2018-07-20T15:02:42.536Z,24.87
2018-07-20T15:04:11.089Z,24.76
2018-07-20T15:05:37.619Z,24.69
2018-07-20T15:07:05.209Z,24.67
2018-07-20T15:08:32.674Z,24.69
2018-07-20T15:10:01.277Z,24.75
2018-07-20T15:11:27.491Z,24.83
2018-07-20T15:12:54.718Z,24.87
2018-07-20T15:14:22.358Z,24.91
2018-07-20T15:15:49.933Z,24.96
2018-07-20T15:17:17.493Z,25.01
2018-07-20T15:18:45.142Z,25.00
2018-07-20T15:20:12.017Z,25.03
2018-07-20T15:21:39.344Z,25.06
2018-07-20T15:23:07.835Z,25.11
2018-07-20T15:24:35.349Z,25.06
2018-07-20T15:26:02.729Z,24.98
2018-07-20T15:27:30.568Z,24.83
2018-07-20T15:28:57.864Z,24.80
2018-07-20T15:30:24.645Z,24.73
2018-07-20T15:31:52.227Z,24.71
2018-07-20T15:33:19.594Z,24.72
2018-07-20T15:34:46.385Z,24.76
2018-07-20T15:36:13.978Z,24.78
2018-07-20T15:37:41.376Z,24.74
2018-07-20T15:39:09.812Z,24.69
2018-07-20T15:40:37.333Z,24.64
2018-07-20T15:42:03.677Z,24.60
2018-07-20T15:43:31.311Z,24.57
2018-07-20T15:44:59.799Z,24.62
2018-07-20T15:46:27.135Z,24.62
2018-07-20T15:47:53.530Z,24.67
2018-07-20T15:49:20.591Z,24.75
2018-07-20T15:50:48.263Z,24.74
2018-07-20T15:53:43.275Z,24.52
2018-07-20T15:55:10.939Z,24.48
2018-07-20T15:56:38.589Z,24.46
2018-07-20T15:58:06.145Z,24.41
2018-07-20T15:59:33.634Z,24.38
2018-07-20T16:01:02.054Z,24.41
2018-07-20T16:02:28.548Z,24.41
2018-07-20T16:03:56.013Z,24.36
2018-07-20T16:05:23.545Z,24.31
2018-07-20T16:06:51.287Z,24.27
2018-07-20T16:08:19.580Z,24.20
2018-07-20T16:09:46.991Z,24.15
2018-07-20T16:11:13.322Z,24.12
2018-07-20T16:12:40.867Z,24.11
2018-07-20T16:14:09.461Z,24.09
2018-07-20T16:15:35.873Z,24.08
2018-07-20T16:17:03.572Z,24.09
2018-07-20T16:18:31.160Z,24.05
2018-07-20T16:19:58.800Z,24.02
2018-07-20T16:21:26.352Z,24.05
2018-07-20T16:22:53.840Z,24.05
2018-07-20T16:24:22.477Z,24.06
2018-07-20T16:25:49.177Z,24.03
2018-07-20T16:27:17.734Z,24.01
2018-07-20T16:28:44.385Z,23.99
2018-07-20T16:30:11.645Z,23.96
2018-07-20T16:31:39.188Z,23.96
2018-07-20T16:33:07.737Z,23.94
2018-07-20T16:34:34.196Z,23.91
2018-07-20T16:36:01.551Z,23.89
2018-07-20T16:37:30.043Z,23.94
2018-07-20T16:38:56.297Z,24.02
2018-07-20T16:40:24.037Z,24.09
2018-07-20T16:41:52.624Z,24.13
2018-07-20T16:43:18.792Z,24.16
2018-07-20T16:44:46.302Z,24.17
2018-07-20T16:46:13.417Z,24.21
2018-07-20T16:47:42.031Z,24.21
2018-07-20T16:49:08.400Z,24.25
2018-07-20T16:50:36.639Z,24.24
2018-07-20T16:52:02.985Z,24.27
2018-07-20T16:53:30.666Z,24.29
2018-07-20T16:54:59.206Z,24.26
2018-07-20T16:56:25.722Z,24.18
2018-07-20T16:57:54.330Z,24.12
2018-07-20T16:59:20.932Z,24.09
2018-07-20T17:00:49.230Z,24.07
2018-07-20T17:02:16.853Z,24.04
2018-07-20T17:03:44.441Z,24.03
2018-07-20T17:05:10.850Z,23.96
2018-07-20T17:06:39.442Z,23.89
2018-07-20T17:08:05.944Z,23.82
2018-07-20T17:09:34.296Z,23.77
2018-07-20T17:11:00.508Z,23.76
2018-07-20T17:12:28.100Z,23.77
2018-07-20T17:13:55.127Z,23.73
2018-07-20T17:15:22.648Z,23.68
2018-07-20T17:16:50.361Z,23.67
2018-07-20T17:18:17.445Z,23.66
2018-07-20T17:19:44.988Z,23.68
2018-07-20T17:21:13.015Z,23.71
2018-07-20T17:22:40.409Z,23.76
2018-07-20T17:24:06.653Z,23.73
2018-07-20T17:25:34.043Z,23.75
2018-07-20T17:27:01.650Z,23.74
2018-07-20T17:28:29.098Z,23.76
2018-07-20T17:29:57.486Z,23.77
2018-07-20T17:31:24.002Z,23.74
2018-07-20T17:32:51.651Z,23.71
2018-07-20T17:34:19.166Z,23.67
2018-07-20T17:35:46.597Z,23.64
2018-07-20T17:37:13.766Z,23.61
2018-07-20T17:38:42.490Z,23.56
2018-07-20T17:40:09.046Z,23.51
2018-07-20T17:41:36.325Z,23.49
2018-07-20T17:43:04.931Z,23.49
2018-07-20T17:44:31.108Z,23.43
2018-07-20T17:45:58.647Z,23.38
2018-07-20T17:47:26.077Z,23.34
2018-07-20T17:48:53.667Z,23.34
2018-07-20T17:50:22.181Z,23.30
2018-07-20T17:51:49.638Z,23.28
2018-07-20T17:53:16.230Z,23.29
2018-07-20T17:54:43.385Z,23.27
2018-07-20T17:56:11.946Z,23.28
2018-07-20T17:57:38.423Z,23.27
2018-07-20T17:59:05.733Z,23.26
2018-07-20T18:00:32.887Z,23.25
2018-07-20T18:02:00.027Z,23.24
2018-07-20T18:03:28.588Z,23.22
2018-07-20T18:04:55.038Z,23.18
2018-07-20T18:06:23.647Z,23.13
2018-07-20T18:07:50.805Z,23.10
2018-07-20T18:09:17.506Z,23.07
2018-07-20T18:10:46.013Z,23.06
2018-07-20T18:12:12.528Z,23.02
2018-07-20T18:13:41.200Z,23.01
2018-07-20T18:15:07.501Z,22.99
2018-07-20T18:16:34.979Z,22.98
2018-07-20T18:18:02.581Z,22.98
2018-07-20T18:19:29.808Z,22.98
2018-07-20T18:20:57.280Z,22.96
2018-07-20T18:22:25.509Z,22.94
2018-07-20T18:23:52.917Z,22.90
2018-07-20T18:25:20.548Z,22.87
2018-07-20T18:26:47.102Z,22.85
2018-07-20T18:28:14.460Z,22.81
2018-07-20T18:29:42.035Z,22.79
2018-07-20T18:31:10.634Z,22.76
2018-07-20T18:32:37.074Z,22.74
2018-07-20T18:34:05.832Z,22.73
2018-07-20T18:35:32.263Z,22.68
2018-07-20T18:36:59.907Z,22.65
2018-07-20T18:38:27.168Z,22.61
2018-07-20T18:39:55.780Z,22.58
2018-07-20T18:41:23.221Z,22.57
2018-07-20T18:42:49.695Z,22.57
2018-07-20T18:44:17.405Z,22.56
2018-07-20T18:45:44.934Z,22.55
2018-07-20T18:47:12.484Z,22.54
2018-07-20T18:48:41.111Z,22.53
2018-07-20T18:50:07.634Z,22.51
2018-07-20T18:51:35.364Z,22.51
2018-07-20T18:53:02.808Z,22.48
2018-07-20T18:54:30.438Z,22.49